Time;durP1;ratioP1;P1;durP2;ratioP2;P2;SDS_P1;SDS_P2;PMS_P1;PMS_P2;Temp;Humidity;BMP_temperature;BMP_pressure;BME280_temperature;BME280_humidity;BME280_pressure;Samples;Min_cycle;Max_cycle;Signal;HPM_P1;HPM_P2
2021/09/12 00:00:08;;;;;;;7.30;4.93;;;13.40;99.90;;;;;;5024647;28;20185;-66
2021/09/12 00:02:38;;;;;;;8.47;5.00;;;13.40;99.90;;;;;;5023024;28;20280;-65
2021/09/12 00:05:09;;;;;;;7.33;4.77;;;13.40;99.90;;;;;;5039165;28;20185;-65
2021/09/12 00:08:05;;;;;;;6.40;5.00;;;13.30;99.90;;;;;;5026748;28;20549;-66
2021/09/12 00:11:02;;;;;;;10.67;4.67;;;13.30;99.90;;;;;;5038435;28;20205;-65
2021/09/12 00:13:41;;;;;;;7.70;4.90;;;13.30;99.90;;;;;;5005574;28;20206;-66
2021/09/12 00:16:51;;;;;;;5.20;4.70;;;13.30;99.90;;;;;;5023166;28;20585;-65
2021/09/12 00:19:20;;;;;;;6.73;5.10;;;13.30;99.90;;;;;;5019720;28;20247;-66
2021/09/12 00:21:48;;;;;;;6.23;4.60;;;13.30;99.90;;;;;;5025122;28;20435;-66
2021/09/12 00:24:17;;;;;;;6.00;5.47;;;13.30;99.90;;;;;;5021949;28;20225;-65
2021/09/12 00:26:47;;;;;;;5.70;4.90;;;13.30;99.90;;;;;;5040624;28;20225;-65
2021/09/12 00:29:16;;;;;;;5.60;5.10;;;13.20;99.90;;;;;;5042133;28;20251;-65
2021/09/12 00:31:45;;;;;;;8.10;5.50;;;13.20;99.90;;;;;;5025562;28;20229;-65
2021/09/12 00:34:13;;;;;;;8.37;5.30;;;13.10;99.90;;;;;;5022704;28;20285;-65
2021/09/12 00:36:43;;;;;;;6.40;5.23;;;13.10;99.90;;;;;;5023651;28;20268;-66
2021/09/12 00:39:12;;;;;;;11.33;5.13;;;13.10;99.90;;;;;;5024298;28;20236;-66
2021/09/12 00:41:43;;;;;;;7.37;5.50;;;13.00;99.90;;;;;;5020834;28;20204;-66
2021/09/12 00:44:14;;;;;;;8.10;5.83;;;12.90;99.90;;;;;;5038214;28;20228;-65
2021/09/12 00:46:45;;;;;;;10.87;5.87;;;12.90;99.90;;;;;;5023228;28;20608;-65
2021/09/12 00:49:15;;;;;;;10.20;5.60;;;12.90;99.90;;;;;;5016538;28;20569;-65
2021/09/12 00:51:44;;;;;;;7.87;5.37;;;12.90;99.90;;;;;;5018951;28;20738;-65
2021/09/12 00:54:13;;;;;;;6.70;5.70;;;12.80;99.90;;;;;;5021915;28;20241;-65
2021/09/12 00:56:43;;;;;;;7.67;5.63;;;12.80;99.90;;;;;;5021072;28;20612;-65
2021/09/12 00:59:15;;;;;;;7.87;6.17;;;12.80;99.90;;;;;;5025331;28;20217;-66
2021/09/12 01:01:43;;;;;;;9.80;5.93;;;12.80;99.90;;;;;;5020003;28;20276;-65
2021/09/12 01:04:12;;;;;;;9.83;5.90;;;12.80;99.90;;;;;;5019623;28;20568;-66
2021/09/12 01:06:41;;;;;;;6.87;5.70;;;12.80;99.90;;;;;;5019607;28;20228;-66
2021/09/12 01:09:09;;;;;;;7.20;6.03;;;12.70;99.90;;;;;;5023711;28;20225;-65
2021/09/12 01:11:37;;;;;;;10.00;6.40;;;12.70;99.90;;;;;;5025881;28;20276;-65
2021/09/12 01:14:05;;;;;;;9.80;6.23;;;12.70;99.90;;;;;;5023294;28;20755;-66
2021/09/12 01:16:35;;;;;;;11.00;6.27;;;12.70;99.90;;;;;;5017841;28;20232;-66
2021/09/12 01:19:06;;;;;;;8.13;6.30;;;12.70;99.90;;;;;;5023801;28;20255;-65
2021/09/12 01:21:35;;;;;;;11.30;6.37;;;12.70;99.90;;;;;;5019833;28;20279;-65
2021/09/12 01:24:11;;;;;;;7.83;6.30;;;12.70;99.90;;;;;;5022405;28;20283;-65
2021/09/12 01:26:40;;;;;;;8.33;6.00;;;12.70;99.90;;;;;;5022579;28;20288;-65
2021/09/12 01:29:08;;;;;;;7.40;6.13;;;12.70;99.90;;;;;;5023658;28;20193;-66
2021/09/12 01:31:37;;;;;;;7.83;5.80;;;12.60;99.90;;;;;;5020859;28;20213;-65
2021/09/12 01:34:10;;;;;;;10.27;6.13;;;12.60;99.90;;;;;;5035832;28;20309;-65
2021/09/12 01:36:39;;;;;;;9.03;5.70;;;12.70;99.90;;;;;;5023079;28;20638;-65
2021/09/12 01:39:11;;;;;;;13.03;6.23;;;12.70;99.90;;;;;;5036384;28;20202;-65
2021/09/12 01:41:45;;;;;;;10.77;6.47;;;12.70;99.90;;;;;;5018610;28;20202;-65
2021/09/12 01:44:14;;;;;;;8.13;5.97;;;12.70;99.90;;;;;;5019316;28;20222;-65
2021/09/12 01:47:08;;;;;;;12.57;5.63;;;12.70;99.90;;;;;;5035426;28;20296;-65
2021/09/12 01:50:16;;;;;;;8.53;5.73;;;12.70;99.90;;;;;;5042155;28;20279;-65
2021/09/12 01:53:01;;;;;;;9.33;6.50;;;12.70;99.90;;;;;;5024939;28;20655;-66
2021/09/12 01:55:31;;;;;;;10.80;6.37;;;12.70;99.90;;;;;;5026908;28;20660;-65
2021/09/12 01:58:00;;;;;;;12.17;6.97;;;12.70;99.90;;;;;;5027374;28;20209;-65
2021/09/12 02:00:28;;;;;;;16.73;7.97;;;12.70;99.90;;;;;;5024982;28;20229;-65
2021/09/12 02:02:58;;;;;;;9.03;6.03;;;12.70;99.90;;;;;;5027582;28;20210;-65
2021/09/12 02:05:27;;;;;;;9.77;6.40;;;12.70;99.90;;;;;;5023826;28;20193;-65
2021/09/12 02:07:55;;;;;;;6.63;6.03;;;12.70;99.90;;;;;;5025243;28;20699;-65
2021/09/12 02:10:26;;;;;;;7.50;6.33;;;12.70;99.90;;;;;;5028140;28;20232;-65
2021/09/12 02:12:57;;;;;;;9.90;7.17;;;12.70;99.90;;;;;;5027627;28;20217;-65
2021/09/12 02:15:28;;;;;;;11.53;6.30;;;12.70;99.90;;;;;;5024183;28;20197;-65
2021/09/12 02:17:56;;;;;;;9.53;6.87;;;12.70;99.90;;;;;;5027072;28;20687;-65
2021/09/12 02:20:24;;;;;;;10.80;6.73;;;12.70;99.90;;;;;;5020546;28;20221;-65
2021/09/12 02:22:53;;;;;;;9.60;7.00;;;12.70;99.90;;;;;;5028760;28;20277;-65
2021/09/12 02:25:21;;;;;;;11.67;7.40;;;12.70;99.90;;;;;;5028809;28;20676;-65
2021/09/12 02:27:49;;;;;;;10.60;6.90;;;12.70;99.90;;;;;;5026630;28;20281;-65
2021/09/12 02:30:19;;;;;;;14.23;7.17;;;12.70;99.90;;;;;;5025961;28;20225;-65
2021/09/12 02:32:47;;;;;;;10.50;6.57;;;12.70;99.90;;;;;;5025160;28;20211;-66
2021/09/12 02:35:16;;;;;;;12.23;7.03;;;12.70;99.90;;;;;;5026788;28;20201;-65
2021/09/12 02:37:45;;;;;;;9.80;6.37;;;12.60;99.90;;;;;;5027566;28;20230;-65
2021/09/12 02:40:14;;;;;;;13.07;7.37;;;12.60;99.90;;;;;;5023512;28;20221;-65
2021/09/12 02:42:42;;;;;;;12.90;7.17;;;12.60;99.90;;;;;;5023838;28;20320;-65
2021/09/12 02:45:11;;;;;;;9.27;6.87;;;12.60;99.90;;;;;;5023763;28;20632;-66
2021/09/12 02:47:41;;;;;;;10.97;6.73;;;12.60;99.90;;;;;;5026725;28;20468;-65
2021/09/12 02:50:10;;;;;;;15.23;7.43;;;12.60;99.90;;;;;;5026184;28;20306;-65
2021/09/12 02:52:39;;;;;;;14.20;7.43;;;12.60;99.90;;;;;;5023264;28;20190;-66
2021/09/12 02:55:08;;;;;;;10.43;6.97;;;12.60;99.90;;;;;;5025986;28;20759;-65
2021/09/12 02:57:37;;;;;;;11.60;7.73;;;12.60;99.90;;;;;;5023271;28;20221;-65
2021/09/12 03:00:06;;;;;;;12.37;7.77;;;12.60;99.90;;;;;;5019705;28;20185;-65
2021/09/12 03:02:35;;;;;;;14.70;8.10;;;12.60;99.90;;;;;;5024379;28;20292;-65
2021/09/12 03:05:06;;;;;;;11.70;7.57;;;12.70;99.90;;;;;;5024867;28;20201;-65
2021/09/12 03:07:34;;;;;;;11.20;7.33;;;12.70;99.90;;;;;;5023782;28;20193;-65
2021/09/12 03:10:03;;;;;;;15.93;7.37;;;12.60;99.90;;;;;;5020192;28;20270;-65
2021/09/12 03:12:32;;;;;;;13.37;8.17;;;12.70;99.90;;;;;;5033620;28;20524;-65
2021/09/12 03:15:00;;;;;;;12.27;7.33;;;12.70;99.90;;;;;;5028244;28;20724;-65
2021/09/12 03:17:28;;;;;;;15.73;7.60;;;12.70;99.90;;;;;;5027857;28;20613;-66
2021/09/12 03:19:57;;;;;;;12.37;7.37;;;12.70;99.90;;;;;;5029295;28;20213;-65
2021/09/12 03:22:27;;;;;;;13.37;7.63;;;12.80;99.90;;;;;;5025001;28;20203;-65
2021/09/12 03:24:55;;;;;;;9.07;6.77;;;12.80;99.90;;;;;;5025828;28;20293;-65
2021/09/12 03:27:24;;;;;;;13.60;7.17;;;12.80;99.90;;;;;;5027660;28;20251;-65
2021/09/12 03:29:52;;;;;;;10.87;7.23;;;12.80;99.90;;;;;;5027322;28;20193;-65
2021/09/12 03:32:20;;;;;;;13.10;7.67;;;12.70;99.90;;;;;;5019025;28;20276;-65
2021/09/12 03:34:49;;;;;;;15.47;7.93;;;12.70;99.90;;;;;;5024032;28;20252;-65
2021/09/12 03:37:17;;;;;;;12.37;7.33;;;12.80;99.90;;;;;;5024911;28;20277;-65
2021/09/12 03:39:47;;;;;;;11.33;7.60;;;12.80;99.90;;;;;;5026759;28;20632;-65
2021/09/12 03:42:16;;;;;;;13.17;7.10;;;12.70;99.90;;;;;;5026539;28;20193;-65
2021/09/12 03:44:44;;;;;;;14.47;7.47;;;12.70;99.90;;;;;;5024130;28;20720;-65
2021/09/12 03:47:12;;;;;;;15.80;7.90;;;12.70;99.90;;;;;;5020196;28;20304;-65
2021/09/12 03:49:41;;;;;;;12.47;7.83;;;12.70;99.90;;;;;;5021468;28;20272;-65
2021/09/12 03:52:09;;;;;;;12.67;7.73;;;12.70;99.90;;;;;;5020255;28;20269;-65
2021/09/12 03:54:37;;;;;;;14.63;7.73;;;12.70;99.90;;;;;;5024193;28;20309;-64
2021/09/12 03:57:07;;;;;;;19.27;7.60;;;12.70;99.90;;;;;;5024843;28;20225;-64
2021/09/12 03:59:35;;;;;;;14.83;7.37;;;12.70;99.90;;;;;;5021847;28;20292;-65
2021/09/12 04:02:04;;;;;;;13.10;7.73;;;12.70;99.90;;;;;;5020877;28;20228;-65
2021/09/12 04:04:33;;;;;;;12.40;7.90;;;12.70;99.90;;;;;;5022570;28;20213;-65
2021/09/12 04:07:01;;;;;;;14.23;8.33;;;12.70;99.90;;;;;;4998497;28;20723;-65
2021/09/12 04:09:30;;;;;;;12.23;7.40;;;12.70;99.90;;;;;;5025065;28;20298;-65
2021/09/12 04:11:58;;;;;;;16.90;8.73;;;12.60;99.90;;;;;;5024931;28;20197;-65
2021/09/12 04:14:28;;;;;;;9.97;7.43;;;12.60;99.90;;;;;;5025117;28;20218;-65
2021/09/12 04:16:56;;;;;;;14.27;8.17;;;12.60;99.90;;;;;;5020649;28;20278;-65
2021/09/12 04:19:24;;;;;;;17.07;7.93;;;12.60;99.90;;;;;;5027157;28;20229;-65
2021/09/12 04:21:53;;;;;;;12.20;7.87;;;12.60;99.90;;;;;;5018939;28;20237;-65
2021/09/12 04:24:23;;;;;;;17.47;8.27;;;12.60;99.90;;;;;;5021075;28;20194;-65
2021/09/12 04:26:52;;;;;;;13.00;8.30;;;12.50;99.90;;;;;;5023874;28;20280;-65
2021/09/12 04:29:21;;;;;;;13.63;8.07;;;12.50;99.90;;;;;;5028027;28;20229;-65
2021/09/12 04:31:51;;;;;;;12.80;7.90;;;12.50;99.90;;;;;;5023419;28;20225;-65
2021/09/12 04:34:20;;;;;;;11.03;7.40;;;12.50;99.90;;;;;;5023881;28;20205;-65
2021/09/12 04:36:48;;;;;;;14.83;8.60;;;12.50;99.90;;;;;;5024169;28;20194;-65
2021/09/12 04:39:16;;;;;;;12.07;8.17;;;12.40;99.90;;;;;;5026615;28;20217;-65
2021/09/12 04:41:45;;;;;;;14.03;8.27;;;12.40;99.90;;;;;;5032312;28;20225;-65
2021/09/12 04:44:13;;;;;;;11.43;7.97;;;12.40;99.90;;;;;;5020217;28;20705;-65
2021/09/12 04:46:41;;;;;;;17.33;8.77;;;12.50;99.90;;;;;;5021969;28;20232;-65
2021/09/12 04:49:11;;;;;;;14.30;8.17;;;12.40;99.90;;;;;;5019888;28;20280;-65
2021/09/12 04:51:39;;;;;;;13.77;8.40;;;12.40;99.90;;;;;;5022284;28;20595;-65
2021/09/12 04:54:08;;;;;;;14.67;8.33;;;12.50;99.90;;;;;;5024413;28;20289;-65
2021/09/12 04:56:36;;;;;;;13.30;8.13;;;12.40;99.90;;;;;;5021434;28;20402;-64
2021/09/12 04:59:04;;;;;;;15.93;8.17;;;12.50;99.90;;;;;;5021318;28;20225;-65
2021/09/12 05:01:33;;;;;;;14.50;8.03;;;12.50;99.90;;;;;;5022534;28;20581;-65
2021/09/12 05:04:02;;;;;;;10.53;7.57;;;12.50;99.90;;;;;;5020490;28;20200;-65
2021/09/12 05:06:31;;;;;;;17.03;7.73;;;12.50;99.90;;;;;;5019687;28;20228;-65
2021/09/12 05:09:00;;;;;;;16.23;7.93;;;12.60;99.90;;;;;;5022346;28;20217;-65
2021/09/12 05:11:28;;;;;;;15.47;8.60;;;12.60;99.90;;;;;;5020839;28;20280;-65
2021/09/12 05:13:56;;;;;;;11.57;7.87;;;12.50;99.90;;;;;;5021513;28;20541;-65
2021/09/12 05:16:25;;;;;;;12.80;7.70;;;12.60;99.90;;;;;;5023486;28;20271;-64
2021/09/12 05:18:54;;;;;;;18.90;8.33;;;12.60;99.90;;;;;;5020422;28;20199;-65
2021/09/12 05:21:23;;;;;;;12.63;8.30;;;12.60;99.90;;;;;;5024429;28;20248;-65
2021/09/12 05:23:52;;;;;;;14.67;8.70;;;12.60;99.90;;;;;;5026611;28;20228;-65
2021/09/12 05:26:21;;;;;;;12.57;7.70;;;12.60;99.90;;;;;;5030140;28;20277;-65
2021/09/12 05:28:50;;;;;;;15.43;8.17;;;12.70;99.90;;;;;;5027569;28;20251;-65
2021/09/12 05:31:18;;;;;;;14.50;8.37;;;12.70;99.90;;;;;;5029964;28;20201;-65
2021/09/12 05:33:51;;;;;;;17.27;8.37;;;12.80;99.90;;;;;;5028512;28;20212;-65
2021/09/12 05:36:19;;;;;;;11.83;8.40;;;12.80;99.90;;;;;;5039064;28;20237;-65
2021/09/12 05:38:48;;;;;;;13.23;8.33;;;12.80;99.90;;;;;;5027129;28;20664;-65
2021/09/12 05:41:18;;;;;;;17.03;8.27;;;12.80;99.90;;;;;;5039031;28;20281;-65
2021/09/12 05:43:47;;;;;;;16.53;7.93;;;12.90;99.90;;;;;;5026907;28;20252;-65
2021/09/12 05:46:15;;;;;;;16.13;8.27;;;13.00;99.90;;;;;;5025537;28;20197;-66
2021/09/12 05:48:44;;;;;;;12.23;7.93;;;12.90;99.90;;;;;;5025592;28;20185;-65
2021/09/12 05:51:12;;;;;;;13.83;7.83;;;13.00;99.90;;;;;;5027058;28;20292;-65
2021/09/12 05:53:41;;;;;;;11.87;7.90;;;13.00;99.90;;;;;;5041709;28;20198;-65
2021/09/12 05:56:11;;;;;;;14.50;8.53;;;13.10;99.90;;;;;;5026013;28;20684;-65
2021/09/12 05:58:42;;;;;;;12.63;7.50;;;13.10;99.90;;;;;;5025023;28;20200;-66
2021/09/12 06:01:13;;;;;;;12.03;7.37;;;13.10;99.90;;;;;;5020162;28;20205;-65
2021/09/12 06:03:47;;;;;;;12.03;7.47;;;13.10;99.90;;;;;;5025656;28;20203;-65
2021/09/12 06:06:36;;;;;;;16.30;7.17;;;13.30;99.90;;;;;;5020530;28;20740;-65
2021/09/12 06:09:36;;;;;;;13.77;7.70;;;13.40;99.90;;;;;;5027397;28;20284;-65
2021/09/12 06:12:05;;;;;;;13.37;7.13;;;13.40;99.90;;;;;;5022143;28;20284;-65
2021/09/12 06:14:36;;;;;;;10.60;7.33;;;13.50;99.90;;;;;;5029278;28;20284;-65
2021/09/12 06:17:05;;;;;;;12.93;7.50;;;13.50;99.90;;;;;;5033946;28;20213;-65
2021/09/12 06:19:34;;;;;;;12.03;7.33;;;13.50;99.90;;;;;;5028132;28;20489;-65
2021/09/12 06:22:03;;;;;;;15.93;7.13;;;13.50;99.90;;;;;;5022391;28;20296;-65
2021/09/12 06:24:32;;;;;;;14.20;7.30;;;13.70;99.90;;;;;;5025935;28;20457;-65
2021/09/12 06:27:00;;;;;;;14.57;6.87;;;13.70;99.90;;;;;;5027736;28;20188;-65
2021/09/12 06:29:29;;;;;;;18.93;7.90;;;13.80;99.90;;;;;;5026536;28;20724;-66
2021/09/12 06:31:58;;;;;;;13.57;6.97;;;13.90;99.90;;;;;;5026375;28;20235;-65
2021/09/12 06:34:27;;;;;;;9.20;6.83;;;13.90;99.90;;;;;;5026985;28;20201;-65
2021/09/12 06:36:58;;;;;;;9.63;6.00;;;14.00;99.90;;;;;;5025881;28;20312;-65
2021/09/12 06:39:26;;;;;;;11.17;6.90;;;14.10;99.90;;;;;;5021885;28;20296;-65
2021/09/12 06:41:54;;;;;;;14.83;6.70;;;14.20;99.90;;;;;;5025332;28;20264;-66
2021/09/12 06:44:23;;;;;;;13.00;7.17;;;14.20;99.90;;;;;;5026511;28;20255;-65
2021/09/12 06:46:51;;;;;;;9.47;6.63;;;14.30;99.90;;;;;;5026115;28;20237;-65
2021/09/12 06:49:21;;;;;;;13.20;7.73;;;14.20;99.90;;;;;;5024078;28;20193;-65
2021/09/12 06:51:49;;;;;;;10.07;6.53;;;14.30;99.90;;;;;;5025000;28;20222;-66
2021/09/12 06:54:17;;;;;;;10.63;6.57;;;14.40;99.90;;;;;;5023116;28;20194;-65
2021/09/12 06:56:45;;;;;;;9.30;5.70;;;14.30;99.90;;;;;;5011986;28;20209;-65
2021/09/12 06:59:14;;;;;;;11.10;6.83;;;14.30;99.90;;;;;;5022563;28;20672;-65
2021/09/12 07:01:42;;;;;;;8.00;6.00;;;14.20;99.90;;;;;;5021035;28;20228;-65
2021/09/12 07:04:10;;;;;;;8.50;6.23;;;14.20;99.90;;;;;;5023151;28;20212;-65
2021/09/12 07:06:40;;;;;;;9.93;6.40;;;14.30;99.90;;;;;;5024457;28;20288;-66
2021/09/12 07:09:08;;;;;;;6.97;6.10;;;14.30;99.90;;;;;;5016598;28;20696;-65
2021/09/12 07:11:39;;;;;;;12.33;6.60;;;14.40;99.90;;;;;;5023456;28;20190;-65
2021/09/12 07:14:08;;;;;;;7.87;5.93;;;14.50;99.90;;;;;;5021413;28;20422;-65
2021/09/12 07:16:36;;;;;;;9.80;6.30;;;14.70;99.90;;;;;;5023042;28;20703;-65
2021/09/12 07:19:07;;;;;;;10.13;6.40;;;14.80;99.90;;;;;;5023363;28;20224;-65
2021/09/12 07:21:36;;;;;;;9.73;6.60;;;14.90;99.90;;;;;;5016493;28;20196;-65
2021/09/12 07:24:06;;;;;;;8.20;6.53;;;15.10;99.90;;;;;;5021598;28;20235;-65
2021/09/12 07:26:35;;;;;;;8.60;5.90;;;15.30;99.90;;;;;;5035169;28;20225;-66
2021/09/12 07:29:03;;;;;;;12.23;6.00;;;15.40;99.90;;;;;;5018600;28;20204;-66
2021/09/12 07:31:31;;;;;;;9.23;6.20;;;15.40;99.90;;;;;;5019776;28;20230;-66
2021/09/12 07:34:02;;;;;;;11.33;6.30;;;15.50;99.90;;;;;;5024671;28;20263;-66
2021/09/12 07:36:31;;;;;;;12.60;7.10;;;15.50;99.90;;;;;;5024714;28;20312;-66
2021/09/12 07:38:59;;;;;;;12.60;6.40;;;15.60;99.90;;;;;;5020492;28;20345;-66
2021/09/12 07:41:29;;;;;;;10.07;5.70;;;15.60;99.90;;;;;;5018294;28;20823;-66
2021/09/12 07:43:58;;;;;;;8.70;5.77;;;15.60;99.90;;;;;;5022362;28;20237;-65
2021/09/12 07:46:26;;;;;;;10.97;6.23;;;15.60;99.90;;;;;;5020180;28;20290;-66
2021/09/12 07:48:54;;;;;;;11.40;6.40;;;15.60;99.90;;;;;;5022857;28;20216;-66
2021/09/12 07:51:22;;;;;;;12.53;6.50;;;15.60;99.90;;;;;;5021675;28;20347;-66
2021/09/12 07:53:51;;;;;;;12.07;6.40;;;15.70;99.90;;;;;;5020347;28;20221;-65
2021/09/12 07:56:19;;;;;;;8.30;6.10;;;15.80;99.90;;;;;;5021299;28;20224;-66
2021/09/12 07:58:49;;;;;;;10.13;6.47;;;15.80;99.90;;;;;;5018818;28;20227;-65
2021/09/12 08:01:18;;;;;;;13.20;6.43;;;15.70;99.90;;;;;;5023105;28;20568;-66
2021/09/12 08:03:47;;;;;;;12.10;6.47;;;15.80;99.90;;;;;;5017545;28;20208;-66
2021/09/12 08:06:15;;;;;;;10.17;6.03;;;15.80;99.90;;;;;;5020108;28;20192;-66
2021/09/12 08:08:43;;;;;;;12.60;6.93;;;15.90;99.90;;;;;;5017653;28;20207;-66
2021/09/12 08:11:12;;;;;;;11.33;6.67;;;16.10;99.90;;;;;;5020023;28;20285;-66
2021/09/12 08:13:40;;;;;;;12.80;6.30;;;16.30;99.90;;;;;;5016797;28;20225;-66
2021/09/12 08:16:12;;;;;;;8.10;5.57;;;16.40;99.90;;;;;;5019802;28;20664;-66
2021/09/12 08:18:40;;;;;;;10.37;6.33;;;16.40;99.90;;;;;;5019139;28;20190;-65
2021/09/12 08:21:10;;;;;;;9.90;6.50;;;16.60;99.90;;;;;;5022835;28;20561;-66
2021/09/12 08:23:39;;;;;;;11.83;6.73;;;16.70;99.90;;;;;;5027248;28;20285;-65
2021/09/12 08:26:07;;;;;;;15.40;6.50;;;16.90;99.90;;;;;;5017679;28;20217;-66
2021/09/12 08:28:36;;;;;;;12.47;6.40;;;17.00;99.90;;;;;;5022179;28;20709;-66
2021/09/12 08:31:04;;;;;;;13.03;6.23;;;17.10;99.90;;;;;;5026068;28;20405;-65
2021/09/12 08:33:34;;;;;;;11.00;6.40;;;17.20;99.90;;;;;;5023399;28;20222;-66
2021/09/12 08:36:03;;;;;;;10.30;6.60;;;17.40;99.90;;;;;;5025588;28;20702;-66
2021/09/12 08:38:32;;;;;;;12.50;6.40;;;17.40;99.90;;;;;;5027130;28;20191;-65
2021/09/12 08:41:00;;;;;;;11.77;6.07;;;17.40;99.90;;;;;;5024286;28;20284;-66
2021/09/12 08:43:30;;;;;;;9.83;6.30;;;17.30;99.90;;;;;;5023056;28;20243;-66
2021/09/12 08:46:00;;;;;;;12.70;6.87;;;17.50;99.90;;;;;;5019311;28;20212;-66
2021/09/12 08:48:28;;;;;;;12.53;6.53;;;17.60;99.90;;;;;;5021743;28;20190;-65
2021/09/12 08:50:58;;;;;;;11.60;6.23;;;17.70;99.90;;;;;;5022083;28;20186;-66
2021/09/12 08:53:26;;;;;;;16.07;6.73;;;18.10;99.90;;;;;;5026101;28;20193;-66
2021/09/12 08:55:55;;;;;;;15.80;6.07;;;18.30;99.90;;;;;;5023985;28;20630;-65
2021/09/12 08:58:24;;;;;;;11.60;6.53;;;18.40;99.90;;;;;;5014731;28;20300;-66
2021/09/12 09:00:53;;;;;;;9.17;6.53;;;18.30;99.90;;;;;;5016147;28;20288;-66
2021/09/12 09:03:22;;;;;;;12.77;6.33;;;18.30;99.90;;;;;;5020123;28;20728;-66
2021/09/12 09:05:51;;;;;;;13.03;7.30;;;18.40;99.90;;;;;;5021802;28;20564;-64
2021/09/12 09:08:21;;;;;;;10.53;6.70;;;18.40;99.90;;;;;;5018932;28;20194;-66
2021/09/12 09:10:51;;;;;;;13.37;7.53;;;18.40;99.90;;;;;;5018474;28;20659;-69
2021/09/12 09:13:29;;;;;;;10.83;6.40;;;18.60;99.90;;;;;;5030330;28;20197;-66
2021/09/12 09:15:58;;;;;;;11.67;6.63;;;19.00;99.90;;;;;;5021117;28;20197;-72
2021/09/12 09:18:38;;;;;;;11.07;6.43;;;19.10;99.90;;;;;;5022947;28;20563;-65
2021/09/12 09:21:25;;;;;;;10.93;6.30;;;19.10;99.90;;;;;;5021811;28;20675;-68
2021/09/12 09:24:12;;;;;;;8.80;5.60;;;19.40;99.90;;;;;;5018291;28;20197;-65
2021/09/12 09:26:42;;;;;;;14.07;6.43;;;19.60;99.90;;;;;;5019998;28;20280;-67
2021/09/12 09:29:11;;;;;;;7.30;6.40;;;19.90;99.90;;;;;;5021279;28;20194;-66
2021/09/12 09:31:40;;;;;;;8.20;5.70;;;19.80;99.90;;;;;;5019282;28;20602;-67
2021/09/12 09:34:16;;;;;;;10.80;6.17;;;19.70;99.90;;;;;;5023628;28;20210;-67
2021/09/12 09:36:45;;;;;;;8.13;5.87;;;20.00;99.90;;;;;;5022317;28;20494;-66
2021/09/12 09:39:16;;;;;;;9.00;5.77;;;20.00;99.90;;;;;;5013937;28;20226;-66
2021/09/12 09:41:45;;;;;;;7.73;6.10;;;19.90;99.90;;;;;;5021919;28;20233;-67
2021/09/12 09:44:14;;;;;;;9.03;6.30;;;19.90;99.90;;;;;;5024256;28;20252;-67
2021/09/12 09:46:44;;;;;;;9.43;6.53;;;19.90;99.90;;;;;;5012118;28;20198;-67
2021/09/12 09:49:24;;;;;;;13.63;6.47;;;20.00;99.90;;;;;;5034970;28;20190;-66
2021/09/12 09:51:54;;;;;;;10.67;6.50;;;20.30;99.90;;;;;;5019135;28;20247;-67
2021/09/12 09:54:25;;;;;;;12.57;6.30;;;20.60;99.90;;;;;;5019838;28;20292;-67
2021/09/12 09:56:54;;;;;;;9.43;5.80;;;20.70;99.90;;;;;;5024679;28;20243;-67
2021/09/12 09:59:24;;;;;;;9.07;6.23;;;20.90;99.90;;;;;;5019296;28;20237;-68
2021/09/12 10:01:54;;;;;;;6.10;5.53;;;21.20;99.90;;;;;;5016160;28;20714;-66
2021/09/12 10:04:26;;;;;;;11.87;6.53;;;21.00;99.90;;;;;;5017488;28;20193;-67
2021/09/12 10:06:55;;;;;;;10.23;6.90;;;20.80;99.90;;;;;;5015666;28;20289;-67
2021/09/12 10:09:25;;;;;;;7.73;6.03;;;20.70;99.90;;;;;;5020624;28;20221;-67
2021/09/12 10:11:55;;;;;;;11.90;6.93;;;20.50;99.90;;;;;;5015286;28;20211;-67
2021/09/12 10:14:28;;;;;;;11.73;6.60;;;20.30;99.90;;;;;;5021196;28;20645;-67
2021/09/12 10:17:00;;;;;;;10.43;6.17;;;20.30;99.90;;;;;;5022343;28;20487;-66
2021/09/12 10:19:33;;;;;;;7.17;6.13;;;20.40;99.90;;;;;;5027413;28;20224;-67
2021/09/12 10:22:08;;;;;;;11.67;6.40;;;20.60;99.90;;;;;;5021688;28;20225;-66
2021/09/12 10:25:08;;;;;;;9.00;6.20;;;20.50;99.90;;;;;;5024325;28;20197;-67
2021/09/12 10:27:39;;;;;;;8.23;5.77;;;20.50;99.90;;;;;;5025008;28;20219;-67
2021/09/12 10:30:33;;;;;;;12.47;5.60;;;20.50;99.90;;;;;;5020532;28;20280;-67
2021/09/12 10:33:23;;;;;;;8.97;6.37;;;20.60;99.90;;;;;;5026003;28;20193;-66
2021/09/12 10:35:55;;;;;;;10.47;6.73;;;20.70;99.90;;;;;;5011978;28;20683;-66
2021/09/12 10:38:27;;;;;;;9.10;6.03;;;20.90;99.90;;;;;;5019739;28;20661;-66
2021/09/12 10:41:19;;;;;;;10.13;6.40;;;20.90;99.90;;;;;;5022620;28;20221;-66
2021/09/12 10:43:51;;;;;;;9.83;6.10;;;21.00;99.90;;;;;;5022393;28;20257;-66
2021/09/12 10:46:29;;;;;;;11.57;6.43;;;21.00;99.90;;;;;;5025486;28;20660;-66
2021/09/12 10:49:11;;;;;;;13.10;7.50;;;21.00;99.90;;;;;;5022748;28;20190;-66
2021/09/12 10:51:41;;;;;;;11.10;6.57;;;21.20;99.90;;;;;;5020889;28;20828;-66
2021/09/12 10:54:09;;;;;;;10.90;7.07;;;21.40;99.90;;;;;;5019835;28;20221;-66
2021/09/12 10:56:40;;;;;;;11.50;6.73;;;21.50;99.90;;;;;;5025156;28;20194;-67
2021/09/12 10:59:12;;;;;;;12.77;7.43;;;21.40;99.90;;;;;;5022992;28;20234;-66
2021/09/12 11:01:49;;;;;;;9.40;6.60;;;21.20;99.90;;;;;;5023827;28;20672;-67
2021/09/12 11:04:27;;;;;;;10.50;6.60;;;21.20;99.90;;;;;;5019867;28;20288;-67
2021/09/12 11:07:01;;;;;;;10.83;6.77;;;21.50;99.90;;;;;;5018985;28;20191;-66
2021/09/12 11:09:30;;;;;;;9.40;7.23;;;21.50;99.90;;;;;;5019871;28;20204;-66
2021/09/12 11:12:01;;;;;;;12.47;7.37;;;21.60;99.90;;;;;;5036527;28;20829;-66
2021/09/12 11:14:30;;;;;;;7.57;6.80;;;21.70;99.90;;;;;;5024956;28;20235;-66
2021/09/12 11:17:06;;;;;;;14.20;7.53;;;21.80;99.90;;;;;;5023637;28;20241;-67
2021/09/12 11:19:34;;;;;;;8.90;7.03;;;21.80;99.90;;;;;;5024494;28;20221;-67
2021/09/12 11:22:03;;;;;;;8.73;6.23;;;21.90;99.90;;;;;;5020346;28;20618;-66
2021/09/12 11:24:31;;;;;;;10.37;7.13;;;21.90;99.90;;;;;;5025164;28;20666;-66
2021/09/12 11:27:03;;;;;;;10.53;6.60;;;21.80;99.90;;;;;;5023641;28;20278;-67
2021/09/12 11:29:33;;;;;;;8.07;6.77;;;21.80;99.90;;;;;;5026130;28;20255;-66
2021/09/12 11:32:05;;;;;;;9.23;6.80;;;22.10;99.90;;;;;;5019490;28;20249;-67
2021/09/12 11:34:36;;;;;;;7.67;6.80;;;22.20;99.90;;;;;;5023436;28;20281;-67
2021/09/12 11:37:06;;;;;;;10.57;6.53;;;22.10;99.90;;;;;;5024317;28;20285;-67
2021/09/12 11:39:37;;;;;;;9.17;6.40;;;22.20;99.90;;;;;;5023222;28;20223;-67
2021/09/12 11:42:10;;;;;;;9.87;6.90;;;22.40;99.90;;;;;;5017135;28;20565;-67
2021/09/12 11:44:39;;;;;;;10.63;7.27;;;22.30;99.90;;;;;;5022335;28;20277;-67
2021/09/12 11:47:10;;;;;;;9.73;6.97;;;22.30;99.90;;;;;;5023983;28;20213;-67
2021/09/12 11:49:39;;;;;;;8.47;6.70;;;22.20;99.90;;;;;;5025391;28;20202;-67
2021/09/12 11:52:09;;;;;;;9.63;6.87;;;22.30;99.90;;;;;;5015996;28;20198;-67
2021/09/12 11:54:38;;;;;;;8.70;7.70;;;22.20;99.90;;;;;;5023689;28;20248;-67
2021/09/12 11:57:10;;;;;;;10.13;7.37;;;22.20;99.90;;;;;;5017213;28;20306;-68
2021/09/12 11:59:42;;;;;;;13.73;7.03;;;22.20;99.90;;;;;;5021151;28;20322;-68
2021/09/12 12:02:12;;;;;;;9.47;6.80;;;22.30;99.90;;;;;;5020610;28;20300;-68
2021/09/12 12:04:43;;;;;;;10.97;7.43;;;22.30;99.90;;;;;;5025009;28;20197;-68
2021/09/12 12:07:11;;;;;;;8.73;6.43;;;22.20;99.90;;;;;;5021346;28;20443;-68
2021/09/12 12:09:41;;;;;;;6.83;6.07;;;22.30;99.90;;;;;;5024274;28;20721;-68
2021/09/12 12:12:14;;;;;;;7.63;6.47;;;22.30;99.90;;;;;;5021060;28;20228;-67
2021/09/12 12:14:51;;;;;;;7.60;6.43;;;22.20;99.90;;;;;;5021788;28;20228;-68
2021/09/12 12:17:21;;;;;;;8.80;6.90;;;22.20;99.90;;;;;;5020199;28;20297;-67
2021/09/12 12:19:50;;;;;;;9.33;6.70;;;22.20;99.90;;;;;;5036155;28;20250;-67
2021/09/12 12:22:20;;;;;;;9.50;6.50;;;22.20;99.90;;;;;;5018056;28;20225;-68
2021/09/12 12:24:53;;;;;;;9.87;6.60;;;22.30;99.90;;;;;;5023932;28;20201;-67
2021/09/12 12:27:24;;;;;;;8.87;7.37;;;22.40;99.90;;;;;;5017592;28;20288;-67
2021/09/12 12:29:57;;;;;;;11.43;7.60;;;22.40;99.90;;;;;;5018091;28;20253;-68
2021/09/12 12:32:26;;;;;;;9.60;7.27;;;22.40;99.90;;;;;;5022059;28;20185;-67
2021/09/12 12:34:56;;;;;;;8.90;7.20;;;22.50;99.90;;;;;;5022685;28;20253;-68
2021/09/12 12:37:42;;;;;;;9.90;7.53;;;22.50;99.90;;;;;;5016379;28;20659;-68
2021/09/12 12:40:14;;;;;;;12.30;8.37;;;22.50;99.90;;;;;;5017401;28;20304;-67
2021/09/12 12:42:46;;;;;;;10.63;8.07;;;22.40;99.90;;;;;;5031252;28;20254;-67
2021/09/12 12:45:34;;;;;;;8.00;7.17;;;22.20;99.90;;;;;;5019533;28;20287;-67
2021/09/12 12:48:20;;;;;;;9.97;7.23;;;22.20;99.90;;;;;;5020941;28;20196;-67
2021/09/12 12:50:50;;;;;;;8.43;7.00;;;22.20;99.90;;;;;;5016429;28;20617;-68
2021/09/12 12:53:22;;;;;;;10.40;6.47;;;22.20;99.90;;;;;;5013747;28;20222;-67
2021/09/12 12:55:52;;;;;;;10.20;7.00;;;22.10;99.90;;;;;;5024820;28;20778;-68
2021/09/12 12:58:23;;;;;;;9.00;6.80;;;22.10;99.90;;;;;;5019037;28;20281;-67